createdAt,value
2023-05-11T00:02:35.364Z,95.30
2023-05-11T00:05:21.365Z,95.40
2023-05-11T00:08:06.933Z,95.50
2023-05-11T00:10:52.525Z,95.60
2023-05-11T00:13:38.443Z,95.60
2023-05-11T00:16:23.882Z,95.70
2023-05-11T00:19:12.303Z,95.50
2023-05-11T00:21:59.217Z,95.80
2023-05-11T00:24:44.669Z,95.80
2023-05-11T00:27:30.498Z,95.90
2023-05-11T00:30:16.316Z,95.90
2023-05-11T00:33:01.847Z,95.90
2023-05-11T00:35:49.148Z,95.90
2023-05-11T00:38:36.735Z,96.00
2023-05-11T00:41:24.876Z,96.00
2023-05-11T00:44:10.393Z,96.00
2023-05-11T00:46:55.886Z,96.10
2023-05-11T00:49:41.915Z,96.00
2023-05-11T00:52:27.468Z,95.90
2023-05-11T00:55:14.405Z,96.00
2023-05-11T00:58:00.545Z,96.40
2023-05-11T01:00:50.305Z,96.10
2023-05-11T01:03:36.036Z,96.10
2023-05-11T01:06:55.956Z,96.50
2023-05-11T01:10:23.394Z,96.10
2023-05-11T01:13:33.160Z,96.20
2023-05-11T01:16:26.333Z,96.20
2023-05-11T01:19:32.594Z,96.10
2023-05-11T01:22:42.410Z,96.10
2023-05-11T01:25:46.981Z,96.10
2023-05-11T01:28:46.687Z,96.20
2023-05-11T01:31:33.753Z,96.20
2023-05-11T01:34:25.300Z,96.30
2023-05-11T01:37:18.528Z,96.40
2023-05-11T01:40:12.115Z,96.40
2023-05-11T01:43:04.785Z,96.30
2023-05-11T01:45:53.816Z,96.50
2023-05-11T01:48:42.643Z,96.60
2023-05-11T01:51:32.618Z,96.70
2023-05-11T01:54:20.141Z,96.70
2023-05-11T01:57:06.699Z,96.60
2023-05-11T01:59:53.816Z,96.60
2023-05-11T02:02:40.885Z,96.70
2023-05-11T02:05:30.023Z,96.70
2023-05-11T02:08:18.231Z,96.80
2023-05-11T02:11:06.473Z,97.00
2023-05-11T02:13:53.109Z,97.10
2023-05-11T02:16:39.475Z,97.50
2023-05-11T02:19:30.859Z,97.40
2023-05-11T02:22:17.820Z,97.50
2023-05-11T02:25:04.554Z,97.50
2023-05-11T02:27:50.549Z,97.60
2023-05-11T02:30:45.777Z,97.60
2023-05-11T02:33:33.121Z,97.60
2023-05-11T02:36:21.815Z,97.40
2023-05-11T02:39:12.730Z,97.50
2023-05-11T02:42:06.376Z,97.90
2023-05-11T02:45:05.199Z,97.70
2023-05-11T02:47:56.674Z,98.00
2023-05-11T02:50:46.687Z,97.70
2023-05-11T02:53:33.715Z,97.70
2023-05-11T02:56:20.022Z,97.70
2023-05-11T02:59:05.850Z,97.80
2023-05-11T03:01:52.754Z,97.70
2023-05-11T03:04:40.086Z,97.70
2023-05-11T03:07:26.015Z,97.80
2023-05-11T03:10:11.643Z,97.70
2023-05-11T03:13:00.514Z,97.80
2023-05-11T03:15:47.208Z,97.80
2023-05-11T03:18:34.055Z,97.70
2023-05-11T03:21:22.738Z,97.70
2023-05-11T03:24:09.220Z,97.80
2023-05-11T03:26:56.132Z,97.70
2023-05-11T03:29:45.575Z,97.60
2023-05-11T03:32:31.558Z,97.80
2023-05-11T03:35:23.081Z,97.70
2023-05-11T03:38:10.697Z,97.70
2023-05-11T03:41:05.864Z,97.80
2023-05-11T03:43:56.157Z,97.90
2023-05-11T03:46:44.315Z,97.90
2023-05-11T03:49:31.659Z,97.80
2023-05-11T03:52:18.278Z,97.80
2023-05-11T03:55:04.306Z,97.80
2023-05-11T03:57:49.979Z,97.90
2023-05-11T04:00:42.479Z,97.90
2023-05-11T04:03:29.704Z,98.00
2023-05-11T04:06:17.208Z,97.80
2023-05-11T04:09:04.142Z,97.70
2023-05-11T04:11:50.376Z,97.70
2023-05-11T04:14:35.828Z,97.60
2023-05-11T04:17:24.273Z,97.60
2023-05-11T04:20:10.891Z,97.60
2023-05-11T04:22:56.948Z,97.60
2023-05-11T04:25:42.732Z,97.60
2023-05-11T04:28:28.329Z,97.60
2023-05-11T04:31:13.869Z,97.70
2023-05-11T04:33:59.499Z,97.80
2023-05-11T04:36:50.219Z,98.10
2023-05-11T04:39:36.624Z,98.40
2023-05-11T04:42:22.408Z,98.70
2023-05-11T04:45:10.670Z,98.90
2023-05-11T04:47:56.679Z,99.10
2023-05-11T04:50:44.671Z,99.10
2023-05-11T04:53:33.273Z,99.30
2023-05-11T04:56:20.083Z,99.30
2023-05-11T04:59:07.661Z,99.40
2023-05-11T05:01:52.911Z,99.40
2023-05-11T05:04:38.457Z,99.20
2023-05-11T05:07:24.041Z,99.20
2023-05-11T05:10:09.916Z,99.20
2023-05-11T05:12:55.475Z,99.20
2023-05-11T05:15:42.036Z,99.20
2023-05-11T05:18:27.901Z,99.50
2023-05-11T05:21:13.642Z,99.60
2023-05-11T05:24:01.249Z,99.70
2023-05-11T05:26:47.505Z,99.60
2023-05-11T05:29:32.911Z,99.60
2023-05-11T05:32:18.387Z,98.90
2023-05-11T05:35:04.284Z,98.70
2023-05-11T05:37:50.316Z,98.50
2023-05-11T05:40:37.927Z,98.00
2023-05-11T05:43:24.413Z,97.70
2023-05-11T05:46:10.134Z,97.90
2023-05-11T05:48:56.727Z,97.90
2023-05-11T05:51:42.612Z,98.20
2023-05-11T05:54:28.609Z,98.10
2023-05-11T05:57:15.826Z,98.20
2023-05-11T06:00:02.982Z,98.00
2023-05-11T06:03:01.573Z,97.70
2023-05-11T06:05:47.560Z,97.80
2023-05-11T06:08:33.621Z,97.60
2023-05-11T06:11:18.902Z,97.40
2023-05-11T06:14:05.337Z,96.90
2023-05-11T06:16:51.537Z,96.50
2023-05-11T06:19:37.131Z,96.50
2023-05-11T06:22:22.763Z,96.50
2023-05-11T06:25:09.286Z,96.30
2023-05-11T06:27:55.077Z,96.30
2023-05-11T06:30:44.048Z,95.80
2023-05-11T06:33:33.359Z,95.70
2023-05-11T06:36:19.874Z,95.50
2023-05-11T06:39:06.912Z,95.40
2023-05-11T06:41:55.170Z,95.20
2023-05-11T06:44:41.708Z,94.70
2023-05-11T06:47:34.480Z,94.30
2023-05-11T06:50:25.793Z,94.10
2023-05-11T06:53:13.568Z,94.00
2023-05-11T06:55:59.319Z,94.00
2023-05-11T06:58:45.207Z,93.80
2023-05-11T07:01:31.741Z,93.60
2023-05-11T07:04:19.681Z,93.60
2023-05-11T07:07:07.772Z,93.40
2023-05-11T07:09:54.573Z,93.30
2023-05-11T07:12:39.766Z,93.10
2023-05-11T07:15:25.251Z,93.00
2023-05-11T07:18:10.684Z,92.70
2023-05-11T07:20:57.137Z,92.60
2023-05-11T07:23:42.862Z,92.20
2023-05-11T07:26:28.378Z,92.20
2023-05-11T07:29:13.744Z,91.90
2023-05-11T07:31:59.096Z,91.60
2023-05-11T07:34:44.958Z,91.50
2023-05-11T07:37:30.544Z,91.70
2023-05-11T07:40:16.626Z,91.40
2023-05-11T07:43:02.302Z,91.40
2023-05-11T07:45:47.704Z,91.00
2023-05-11T07:48:33.767Z,90.80
2023-05-11T07:51:19.157Z,90.70
2023-05-11T07:54:04.924Z,90.70
2023-05-11T07:56:50.633Z,90.50
2023-05-11T07:59:36.669Z,90.40
2023-05-11T08:02:22.791Z,90.20
2023-05-11T08:05:11.915Z,90.20
2023-05-11T08:07:57.478Z,90.00
2023-05-11T08:10:45.600Z,89.70
2023-05-11T08:13:31.329Z,89.30
2023-05-11T08:16:16.986Z,89.80
2023-05-11T08:19:04.236Z,89.70
2023-05-11T08:21:49.786Z,89.50
2023-05-11T08:24:35.232Z,89.30
2023-05-11T08:27:21.295Z,87.70
2023-05-11T08:30:09.445Z,86.80
2023-05-11T08:32:58.925Z,88.10
2023-05-11T08:35:45.144Z,88.10
2023-05-11T08:38:31.171Z,87.10
2023-05-11T08:41:19.589Z,85.90
2023-05-11T08:44:06.124Z,84.90
2023-05-11T08:47:01.552Z,84.70
2023-05-11T08:49:59.286Z,84.40
2023-05-11T08:52:48.288Z,85.10
2023-05-11T08:55:35.101Z,83.80
2023-05-11T08:58:23.399Z,83.50
2023-05-11T09:01:14.670Z,82.10
2023-05-11T09:04:00.127Z,81.10
2023-05-11T09:06:46.063Z,79.60
2023-05-11T09:09:31.533Z,78.50
2023-05-11T09:12:18.004Z,77.40
2023-05-11T09:15:06.433Z,75.90
2023-05-11T09:17:51.947Z,74.80
2023-05-11T09:20:42.692Z,73.30
2023-05-11T09:23:28.222Z,72.20
2023-05-11T09:26:17.998Z,71.40
2023-05-11T09:29:23.676Z,69.90
2023-05-11T09:32:09.461Z,71.00
2023-05-11T09:34:56.924Z,71.40
2023-05-11T09:37:59.649Z,70.80
2023-05-11T09:40:55.568Z,71.20
2023-05-11T09:43:43.243Z,72.50
2023-05-11T09:46:32.135Z,71.70
2023-05-11T09:49:20.416Z,72.30
2023-05-11T09:52:06.076Z,72.30
2023-05-11T09:54:52.172Z,71.90
2023-05-11T09:57:37.572Z,71.70
2023-05-11T10:00:25.258Z,71.20
2023-05-11T10:03:11.124Z,70.70
2023-05-11T10:05:59.975Z,69.70
2023-05-11T10:08:46.125Z,70.00
2023-05-11T10:11:32.109Z,70.70
2023-05-11T10:14:19.592Z,70.40
2023-05-11T10:17:05.894Z,70.40
2023-05-11T10:19:52.777Z,69.60
2023-05-11T10:22:38.610Z,69.80
2023-05-11T10:25:25.511Z,69.80
2023-05-11T10:28:13.829Z,69.20
2023-05-11T10:30:59.811Z,68.40
2023-05-11T10:33:48.596Z,67.90
2023-05-11T10:36:35.068Z,66.70
2023-05-11T10:39:20.893Z,65.60
2023-05-11T10:42:18.623Z,66.20
2023-05-11T10:45:10.123Z,66.40
2023-05-11T10:48:27.525Z,66.30
2023-05-11T10:51:38.348Z,66.90
2023-05-11T10:54:48.972Z,69.20
2023-05-11T10:58:24.266Z,70.90
2023-05-11T11:01:30.513Z,71.00
2023-05-11T11:04:15.986Z,71.70
2023-05-11T11:07:06.467Z,72.90
2023-05-11T11:09:53.722Z,73.20
2023-05-11T11:12:39.779Z,74.50
2023-05-11T11:15:25.428Z,74.00
2023-05-11T11:18:23.581Z,75.00
2023-05-11T11:21:13.859Z,75.00
2023-05-11T11:24:01.298Z,73.40
2023-05-11T11:26:50.620Z,72.40
2023-05-11T11:29:40.303Z,71.50
2023-05-11T11:32:26.848Z,68.20
2023-05-11T11:35:41.193Z,69.40
2023-05-11T11:38:29.350Z,70.00
2023-05-11T11:41:29.712Z,70.20
2023-05-11T11:44:22.086Z,71.00
2023-05-11T11:47:20.438Z,71.50
2023-05-11T11:50:14.954Z,71.70
2023-05-11T11:53:00.378Z,73.60
2023-05-11T11:55:52.332Z,75.80
2023-05-11T11:58:46.965Z,76.60
2023-05-11T12:01:38.001Z,79.50
2023-05-11T12:04:36.661Z,81.70
2023-05-11T12:07:24.244Z,83.30
2023-05-11T12:10:12.785Z,84.20
2023-05-11T12:13:00.163Z,85.00
2023-05-11T12:15:45.673Z,86.00
2023-05-11T12:18:31.483Z,86.20
2023-05-11T12:21:21.530Z,86.90
2023-05-11T12:24:07.452Z,87.90
2023-05-11T12:26:57.185Z,87.30
2023-05-11T12:29:45.864Z,89.20
2023-05-11T12:32:32.362Z,90.00
2023-05-11T12:35:26.759Z,90.00
2023-05-11T12:38:12.118Z,89.50
2023-05-11T12:40:57.682Z,90.10
2023-05-11T12:43:43.199Z,90.10
2023-05-11T12:46:29.000Z,90.40
2023-05-11T12:52:13.396Z,90.20
2023-05-11T12:55:00.818Z,90.60
2023-05-11T12:57:46.272Z,90.60
2023-05-11T13:00:31.927Z,90.70
2023-05-11T13:03:22.976Z,90.30
2023-05-11T13:06:12.983Z,90.20
2023-05-11T13:08:59.149Z,90.20
2023-05-11T13:11:44.792Z,90.20
2023-05-11T13:14:31.738Z,90.50
2023-05-11T13:17:31.469Z,90.60
2023-05-11T13:20:28.047Z,90.00
2023-05-11T13:23:15.192Z,90.20
2023-05-11T13:26:01.247Z,90.40
2023-05-11T13:28:52.507Z,90.70
2023-05-11T13:31:51.778Z,90.20
2023-05-11T13:34:37.430Z,88.40
2023-05-11T13:37:22.868Z,87.70
2023-05-11T13:40:10.534Z,87.50
2023-05-11T13:42:56.778Z,87.30
2023-05-11T13:45:42.036Z,86.50
2023-05-11T13:48:27.686Z,86.30
2023-05-11T13:51:13.213Z,86.70
2023-05-11T13:53:59.434Z,87.10
2023-05-11T13:56:45.061Z,87.10
2023-05-11T13:59:30.664Z,86.30
2023-05-11T14:02:16.664Z,85.40
2023-05-11T14:05:02.441Z,84.10
2023-05-11T14:07:49.213Z,82.60
2023-05-11T14:10:34.833Z,80.60
2023-05-11T14:13:20.611Z,81.60
2023-05-11T14:16:06.506Z,81.50
2023-05-11T14:18:52.426Z,79.70
2023-05-11T14:21:37.823Z,79.00
2023-05-11T14:24:23.080Z,78.50
2023-05-11T14:27:08.625Z,77.70
2023-05-11T14:29:54.962Z,77.40
2023-05-11T14:32:40.627Z,76.30
2023-05-11T14:35:29.153Z,76.70
2023-05-11T14:38:14.462Z,76.60
2023-05-11T14:41:01.901Z,74.00
2023-05-11T14:43:49.238Z,73.60
2023-05-11T14:46:34.666Z,73.30
2023-05-11T14:49:22.736Z,73.00
2023-05-11T14:52:08.152Z,74.00
2023-05-11T14:54:53.871Z,74.00
2023-05-11T14:57:39.397Z,74.60
2023-05-11T15:00:24.838Z,74.60
2023-05-11T15:03:10.910Z,75.00
2023-05-11T15:05:57.981Z,75.00
2023-05-11T15:08:43.426Z,74.10
2023-05-11T15:11:29.091Z,74.20
2023-05-11T15:14:14.664Z,74.90
2023-05-11T15:17:00.389Z,74.70
2023-05-11T15:19:45.824Z,75.00
2023-05-11T15:22:31.520Z,74.50
2023-05-11T15:25:16.993Z,74.90
2023-05-11T15:28:04.697Z,74.70
2023-05-11T15:30:50.319Z,74.80
2023-05-11T15:33:36.123Z,74.10
2023-05-11T15:36:21.428Z,74.20
2023-05-11T15:39:07.089Z,72.20
2023-05-11T15:41:52.461Z,72.70
2023-05-11T15:44:40.506Z,72.80
2023-05-11T15:47:28.343Z,72.80
2023-05-11T15:50:14.494Z,73.40
2023-05-11T15:53:00.945Z,72.50
2023-05-11T15:55:50.661Z,71.90
2023-05-11T15:58:36.022Z,71.30
2023-05-11T16:01:21.450Z,71.10
2023-05-11T16:04:07.156Z,71.00
2023-05-11T16:06:52.548Z,71.50
2023-05-11T16:09:38.347Z,71.60
2023-05-11T16:12:23.804Z,71.30
2023-05-11T16:15:10.298Z,72.20
2023-05-11T16:17:55.588Z,73.10
2023-05-11T16:20:41.188Z,74.50
2023-05-11T16:23:26.645Z,75.30
2023-05-11T16:26:12.351Z,75.50
2023-05-11T16:28:57.549Z,75.80
2023-05-11T16:31:43.796Z,76.20
2023-05-11T16:34:29.392Z,76.40
2023-05-11T16:37:15.466Z,77.70
2023-05-11T16:40:02.011Z,78.40
2023-05-11T16:42:48.430Z,78.70
2023-05-11T16:45:33.898Z,78.80
2023-05-11T16:48:22.469Z,79.20
2023-05-11T16:51:07.967Z,79.50
2023-05-11T16:53:53.540Z,79.90
2023-05-11T16:56:39.098Z,80.30
2023-05-11T16:59:24.672Z,80.80
2023-05-11T17:02:10.287Z,81.50
2023-05-11T17:04:55.583Z,81.30
2023-05-11T17:07:44.752Z,81.50
2023-05-11T17:10:30.467Z,81.80
2023-05-11T17:13:18.718Z,82.00
2023-05-11T17:16:06.607Z,82.10
2023-05-11T17:18:51.958Z,82.00
2023-05-11T17:21:38.044Z,82.20
2023-05-11T17:24:23.503Z,82.60
2023-05-11T17:27:11.684Z,82.70
2023-05-11T17:29:57.653Z,83.10
2023-05-11T17:32:43.957Z,83.70
2023-05-11T17:35:29.461Z,83.60
2023-05-11T17:38:14.971Z,83.70
2023-05-11T17:41:04.951Z,83.80
2023-05-11T17:43:50.172Z,83.70
2023-05-11T17:46:36.145Z,83.70
2023-05-11T17:49:22.044Z,84.00
2023-05-11T17:52:08.624Z,84.20
2023-05-11T17:54:54.066Z,84.50
2023-05-11T17:57:41.771Z,84.90
2023-05-11T18:00:27.814Z,85.10
2023-05-11T18:03:13.280Z,85.40
2023-05-11T18:05:59.078Z,85.80
2023-05-11T18:08:44.965Z,86.20
2023-05-11T18:11:30.718Z,86.30
2023-05-11T18:14:16.539Z,86.70
2023-05-11T18:17:01.878Z,87.80
2023-05-11T18:19:47.457Z,87.40
2023-05-11T18:22:34.609Z,87.70
2023-05-11T18:25:31.824Z,87.90
2023-05-11T18:28:17.386Z,88.20
2023-05-11T18:31:02.640Z,88.60
2023-05-11T18:33:49.108Z,88.80
2023-05-11T18:36:34.765Z,89.00
2023-05-11T18:39:20.429Z,89.30
2023-05-11T18:42:06.779Z,89.40
2023-05-11T18:44:54.154Z,89.60
2023-05-11T18:47:41.826Z,89.80
2023-05-11T18:50:29.927Z,90.10
2023-05-11T18:53:15.441Z,90.20
2023-05-11T18:56:00.923Z,90.40
2023-05-11T18:58:46.820Z,90.90
2023-05-11T19:01:46.718Z,90.70
2023-05-11T19:04:33.447Z,90.90
2023-05-11T19:07:20.718Z,91.10
2023-05-11T19:10:08.095Z,91.20
2023-05-11T19:12:56.479Z,91.30
2023-05-11T19:15:42.044Z,91.40
2023-05-11T19:18:28.370Z,91.60
2023-05-11T19:21:14.563Z,91.70
2023-05-11T19:24:00.191Z,91.90
2023-05-11T19:26:55.093Z,92.00
2023-05-11T19:29:47.359Z,92.40
2023-05-11T19:32:32.915Z,92.60
2023-05-11T19:35:19.146Z,92.90
2023-05-11T19:38:06.235Z,93.00
2023-05-11T19:40:52.807Z,93.30
2023-05-11T19:43:41.533Z,93.60
2023-05-11T19:46:32.317Z,93.70
2023-05-11T19:49:17.668Z,93.90
2023-05-11T19:52:03.830Z,94.00
2023-05-11T19:54:49.350Z,94.20
2023-05-11T19:57:37.608Z,94.40
2023-05-11T20:00:25.240Z,94.40
2023-05-11T20:03:11.471Z,94.70
2023-05-11T20:05:56.792Z,94.30
2023-05-11T20:08:42.330Z,94.40
2023-05-11T20:11:28.827Z,94.40
2023-05-11T20:14:14.522Z,94.30
2023-05-11T20:17:00.032Z,94.30
2023-05-11T20:19:45.772Z,94.40
2023-05-11T20:22:32.133Z,94.40
2023-05-11T20:25:19.206Z,94.40
2023-05-11T20:28:04.749Z,94.40
2023-05-11T20:30:50.708Z,94.50
2023-05-11T20:36:25.969Z,94.60
2023-05-11T20:39:11.393Z,94.70
2023-05-11T20:41:59.033Z,94.80
2023-05-11T20:44:45.115Z,94.80
2023-05-11T20:47:32.220Z,94.80
2023-05-11T20:50:18.352Z,95.00
2023-05-11T20:53:03.703Z,95.10
2023-05-11T20:55:51.053Z,95.20
2023-05-11T20:58:36.768Z,95.30
2023-05-11T21:01:24.501Z,95.40
2023-05-11T21:04:09.641Z,95.50
2023-05-11T21:06:55.460Z,95.80
2023-05-11T21:09:40.843Z,95.90
2023-05-11T21:12:26.325Z,95.90
2023-05-11T21:15:11.454Z,96.10
2023-05-11T21:17:56.953Z,96.20
2023-05-11T21:20:42.454Z,96.40
2023-05-11T21:23:29.880Z,96.50
2023-05-11T21:26:18.101Z,96.60
2023-05-11T21:29:03.881Z,97.00
2023-05-11T21:31:49.460Z,96.70
2023-05-11T21:34:35.011Z,96.80
2023-05-11T21:37:21.428Z,97.00
2023-05-11T21:40:07.633Z,97.30
2023-05-11T21:42:55.222Z,97.30
2023-05-11T21:45:41.203Z,97.40
2023-05-11T21:48:26.647Z,97.50
2023-05-11T21:51:12.100Z,97.80
2023-05-11T21:53:57.913Z,98.10
2023-05-11T21:56:43.299Z,98.30
2023-05-11T21:59:28.679Z,98.40
2023-05-11T22:02:14.678Z,98.40
2023-05-11T22:05:03.055Z,98.50
2023-05-11T22:07:48.612Z,98.50
2023-05-11T22:10:34.036Z,98.80
2023-05-11T22:13:20.567Z,98.90
2023-05-11T22:16:06.293Z,98.90
2023-05-11T22:18:52.548Z,98.80
2023-05-11T22:21:37.814Z,99.00
2023-05-11T22:24:25.612Z,99.20
2023-05-11T22:27:15.461Z,99.10
2023-05-11T22:30:01.515Z,98.90
2023-05-11T22:32:47.718Z,98.90
2023-05-11T22:35:33.443Z,98.70
2023-05-11T22:38:18.845Z,98.60
2023-05-11T22:41:04.961Z,98.70
2023-05-11T22:43:54.556Z,98.70
2023-05-11T22:46:40.071Z,98.60
2023-05-11T22:49:26.041Z,98.60
2023-05-11T22:52:11.610Z,98.50
2023-05-11T22:54:59.485Z,98.30
2023-05-11T22:57:44.696Z,98.20
2023-05-11T23:00:30.614Z,97.90
2023-05-11T23:03:16.353Z,97.90
2023-05-11T23:06:04.739Z,97.70
2023-05-11T23:08:50.619Z,98.00
2023-05-11T23:11:36.001Z,97.60
2023-05-11T23:14:21.498Z,97.80
2023-05-11T23:17:06.904Z,97.80
2023-05-11T23:19:52.232Z,97.70
2023-05-11T23:22:37.789Z,97.80
2023-05-11T23:25:23.505Z,97.70
2023-05-11T23:28:11.544Z,97.70
2023-05-11T23:30:57.324Z,97.80
2023-05-11T23:33:42.838Z,97.70
2023-05-11T23:36:28.379Z,97.80
2023-05-11T23:39:14.328Z,97.70
2023-05-11T23:42:00.946Z,97.50
2023-05-11T23:44:46.556Z,97.60
2023-05-11T23:47:34.798Z,97.50
2023-05-11T23:50:20.311Z,97.50
2023-05-11T23:53:05.868Z,97.60
2023-05-11T23:55:51.356Z,97.60
2023-05-11T23:58:36.899Z,97.60
